Time;durP1;ratioP1;P1;durP2;ratioP2;P2;SDS_P1;SDS_P2;PMS_P1;PMS_P2;Temp;Humidity;BMP_temperature;BMP_pressure;BME280_temperature;BME280_humidity;BME280_pressure;Samples;Min_cycle;Max_cycle;Signal;HPM_P1;HPM_P2
2022/01/14 00:02:18;;;;;;;22.08;11.07;;;;;;;2.27;69.12;102778.69;4910392;29;20420;-90
2022/01/14 00:08:06;;;;;;;21.63;11.88;;;;;;;1.92;68.93;102738.38;4916200;29;20031;-91
2022/01/14 00:14:09;;;;;;;21.67;11.77;;;;;;;2.04;69.50;102807.75;4918167;29;20132;-95
2022/01/14 00:19:56;;;;;;;22.88;11.75;;;;;;;1.96;69.89;102754.38;4899415;29;20100;-92
2022/01/14 00:31:55;;;;;;;23.65;12.20;;;;;;;1.95;69.72;102734.50;4920708;29;20056;-91
2022/01/14 00:37:42;;;;;;;21.48;11.43;;;;;;;1.80;70.58;102742.97;4918377;29;20043;-94
2022/01/14 00:48:13;;;;;;;22.88;11.90;;;;;;;1.96;69.60;102722.53;4919080;29;20159;-91
2022/01/14 00:54:00;;;;;;;21.60;12.00;;;;;;;2.40;68.71;102753.59;4917135;29;20067;-89
2022/01/14 00:59:48;;;;;;;22.08;11.55;;;;;;;2.04;69.54;102714.97;4917572;29;20075;-90
2022/01/14 01:05:36;;;;;;;20.73;10.82;;;;;;;1.86;69.09;102673.22;4898752;29;20115;-90
2022/01/14 01:11:33;;;;;;;22.25;12.23;;;;;;;2.04;68.47;102668.59;4916636;29;20052;-91
2022/01/14 01:17:21;;;;;;;24.33;11.98;;;;;;;2.16;68.50;102712.97;4901322;29;20553;-91
2022/01/14 01:23:08;;;;;;;21.67;11.45;;;;;;;2.13;68.64;102707.41;4917081;29;20368;-91
2022/01/14 01:34:45;;;;;;;24.60;12.52;;;;;;;2.21;69.33;102722.16;4916657;29;20084;-91
2022/01/14 01:40:33;;;;;;;21.42;12.23;;;;;;;1.91;69.38;102693.66;4916928;29;20051;-90
2022/01/14 01:51:04;;;;;;;22.67;11.30;;;;;;;1.82;68.37;102599.81;4900050;29;20626;-91
2022/01/14 01:56:51;;;;;;;23.48;12.35;;;;;;;2.08;69.43;102679.28;4915736;29;20084;-90
2022/01/14 02:02:39;;;;;;;22.23;12.20;;;;;;;1.91;69.38;102634.41;4916479;29;20091;-92
2022/01/14 02:08:26;;;;;;;26.00;12.20;;;;;;;2.18;69.38;102670.25;4907491;29;20119;-91
2022/01/14 02:26:32;;;;;;;22.52;12.10;;;;;;;1.75;70.06;102599.81;4919694;29;20039;-91
2022/01/14 02:32:20;;;;;;;23.27;11.63;;;;;;;1.98;69.34;102618.00;4907700;29;20037;-90
2022/01/14 02:38:09;;;;;;;24.13;12.77;;;;;;;2.19;68.70;102602.47;4905086;29;20043;-90
2022/01/14 02:44:03;;;;;;;20.55;11.00;;;;;;;1.91;69.74;102607.72;4917836;29;20241;-92
2022/01/14 02:49:50;;;;;;;21.58;11.13;;;;;;;1.81;69.25;102542.22;4919232;29;20483;-90
2022/01/14 02:55:43;;;;;;;20.02;11.15;;;;;;;1.95;68.88;102532.63;4916287;29;20352;-90
2022/01/14 03:01:30;;;;;;;23.20;11.55;;;;;;;2.14;68.87;102566.59;4938024;29;20099;-88
2022/01/14 03:07:17;;;;;;;21.48;11.60;;;;;;;2.07;69.22;102580.41;4912621;29;20055;-91
2022/01/14 03:13:04;;;;;;;21.10;10.90;;;;;;;1.94;68.33;102511.06;4901105;29;20044;-93
2022/01/14 03:18:54;;;;;;;20.95;11.43;;;;;;;1.72;69.54;102522.22;4918751;29;20358;-91
2022/01/14 03:30:28;;;;;;;22.02;11.40;;;;;;;2.23;69.04;102557.38;4919295;29;20100;-92
2022/01/14 03:36:16;;;;;;;20.65;10.75;;;;;;;1.97;69.41;102539.78;4906294;29;20306;-90
2022/01/14 03:42:05;;;;;;;19.98;10.90;;;;;;;1.82;69.01;102525.09;4911145;29;20309;-92
2022/01/14 03:51:42;;;;;;;22.05;11.13;;;;;;;1.98;69.52;102553.59;4918879;29;20086;-89
2022/01/14 03:57:29;;;;;;;21.98;11.43;;;;;;;1.98;68.82;102514.94;4905473;29;20050;-92
2022/01/14 04:03:16;;;;;;;18.95;10.52;;;;;;;1.83;69.62;102519.22;4917488;29;20302;-89
2022/01/14 04:09:04;;;;;;;21.75;11.23;;;;;;;2.15;69.46;102534.94;4918405;29;20788;-89
2022/01/14 04:20:39;;;;;;;22.10;11.30;;;;;;;1.62;69.33;102479.91;4907886;29;20176;-89
2022/01/14 04:26:08;;;;;;;18.77;10.43;;;;;;;1.83;69.54;102504.69;4910793;29;19937;-92
2022/01/14 04:31:55;;;;;;;20.80;10.40;;;;;;;1.75;69.19;102500.28;4917875;29;20039;-92
2022/01/14 04:37:42;;;;;;;24.55;11.52;;;;;;;1.63;70.14;102507.50;4917356;29;20172;-95
2022/01/14 04:43:30;;;;;;;21.33;11.40;;;;;;;1.85;69.36;102551.22;4903090;29;20429;-93
2022/01/14 04:49:17;;;;;;;22.25;11.10;;;;;;;1.68;68.91;102472.00;4913408;29;20058;-92
2022/01/14 04:55:09;;;;;;;19.95;10.70;;;;;;;1.90;69.95;102528.59;4903606;29;20390;-90
2022/01/14 05:00:56;;;;;;;23.92;10.88;;;;;;;1.68;69.67;102502.91;4916592;29;20047;-91
2022/01/14 05:06:48;;;;;;;18.52;10.13;;;;;;;1.70;70.08;102498.84;4914949;29;20043;-91
2022/01/14 05:12:37;;;;;;;21.95;11.13;;;;;;;1.99;69.05;102491.00;4916959;29;20039;-92
2022/01/14 05:18:25;;;;;;;20.55;10.65;;;;;;;1.75;70.00;102481.34;4911440;29;20031;-91
2022/01/14 05:24:12;;;;;;;20.13;10.38;;;;;;;1.80;69.29;102480.25;4899510;29;20055;-90
2022/01/14 05:29:59;;;;;;;21.38;10.93;;;;;;;1.83;69.16;102462.56;4917544;29;20792;-92
2022/01/14 05:35:46;;;;;;;21.42;11.00;;;;;;;1.78;69.96;102464.59;4916749;29;20784;-91
2022/01/14 05:41:34;;;;;;;21.17;11.63;;;;;;;1.82;70.03;102459.06;4906732;29;20043;-92
2022/01/14 05:47:22;;;;;;;20.90;10.88;;;;;;;1.40;70.25;102400.94;4916577;29;20095;-90
2022/01/14 05:53:10;;;;;;;22.80;11.70;;;;;;;1.45;69.83;102410.09;4913981;29;20075;-91
2022/01/14 05:58:57;;;;;;;22.05;11.88;;;;;;;1.02;69.81;102333.03;4967731;23;20054;-91
2022/01/14 06:04:45;;;;;;;24.10;11.88;;;;;;;0.95;69.61;102281.59;4944649;29;20056;-95
2022/01/14 06:10:33;;;;;;;21.05;11.63;;;;;;;0.69;69.67;102278.56;4933914;29;20074;-95
2022/01/14 06:16:20;;;;;;;20.40;10.73;;;;;;;1.51;69.54;102382.50;4924647;29;20047;-94
2022/01/14 06:22:08;;;;;;;21.63;11.15;;;;;;;1.71;69.92;102445.69;4919632;29;20039;-84
2022/01/14 06:27:55;;;;;;;20.60;11.02;;;;;;;1.76;69.74;102424.88;4919159;29;20107;-84
2022/01/14 06:43:18;;;;;;;21.13;10.45;;;;;;;1.66;69.47;102385.00;4917712;29;20043;-87
2022/01/14 06:56:53;;;;;;;20.27;11.63;;;;;;;1.50;69.82;102326.56;4898980;29;20040;-91
2022/01/14 07:02:40;;;;;;;19.45;10.82;;;;;;;1.53;69.24;102296.06;4900618;29;20373;-90
2022/01/14 07:08:27;;;;;;;19.58;10.48;;;;;;;1.74;69.15;102341.38;4901126;29;20092;-92
2022/01/14 07:17:07;;;;;;;22.23;11.02;;;;;;;1.79;69.43;102324.75;4938156;29;20446;-90
2022/01/14 07:22:54;;;;;;;22.00;11.00;;;;;;;2.02;69.29;102353.13;4922081;29;20086;-94
2022/01/14 07:28:42;;;;;;;19.65;10.45;;;;;;;1.72;69.54;102326.50;4900529;29;20040;-92
2022/01/14 07:34:29;;;;;;;19.15;10.77;;;;;;;1.81;69.35;102304.34;4883552;29;20040;-94
2022/01/14 07:40:16;;;;;;;21.50;11.02;;;;;;;1.80;68.86;102289.66;4912684;29;20080;-90
2022/01/14 07:46:05;;;;;;;20.77;10.80;;;;;;;1.98;68.94;102304.59;4884224;29;20295;-95
2022/01/14 07:51:54;;;;;;;22.67;11.15;;;;;;;1.77;69.26;102259.28;4909468;29;20127;-93
2022/01/14 07:57:41;;;;;;;21.42;11.65;;;;;;;1.91;68.15;102219.63;4905595;29;20096;-93
2022/01/14 08:03:30;;;;;;;19.83;11.05;;;;;;;1.65;68.88;102196.09;4905767;29;20068;-91
2022/01/14 08:09:19;;;;;;;24.05;11.57;;;;;;;1.99;68.76;102231.72;4899669;29;20060;-92
2022/01/14 08:15:09;;;;;;;21.38;10.60;;;;;;;1.65;68.55;102165.19;4902003;29;20039;-89
2022/01/14 08:20:59;;;;;;;18.75;10.23;;;;;;;1.63;69.00;102169.28;4903666;29;20051;-92
2022/01/14 08:26:46;;;;;;;22.10;11.82;;;;;;;1.89;68.09;102184.16;4891222;29;20060;-90
2022/01/14 08:32:34;;;;;;;22.92;11.48;;;;;;;2.05;68.28;102221.16;4907614;29;20036;-87
2022/01/14 08:38:21;;;;;;;24.00;12.15;;;;;;;2.15;68.24;102215.38;4897652;29;20044;-89
2022/01/14 08:44:09;;;;;;;21.88;12.02;;;;;;;1.90;68.02;102149.91;4900112;29;20095;-91
2022/01/14 08:49:57;;;;;;;27.98;12.75;;;;;;;2.01;68.37;102183.84;4904613;29;20057;-91
2022/01/14 08:55:45;;;;;;;24.30;12.77;;;;;;;2.02;68.33;102166.72;4901079;29;20096;-92
2022/01/14 09:01:33;;;;;;;24.58;12.77;;;;;;;2.00;68.59;102174.28;4903994;29;20101;-92
2022/01/14 09:07:20;;;;;;;25.73;12.85;;;;;;;1.93;68.55;102151.16;4897924;29;20427;-92
2022/01/14 09:13:07;;;;;;;27.02;12.55;;;;;;;2.10;68.33;102157.28;4883502;29;20345;-91
2022/01/14 09:18:54;;;;;;;27.40;12.85;;;;;;;2.09;68.19;102137.38;4882660;29;20044;-92
2022/01/14 09:24:42;;;;;;;25.65;13.02;;;;;;;2.19;68.55;102135.97;4880924;29;20304;-90
2022/01/14 09:30:30;;;;;;;27.95;14.25;;;;;;;1.98;68.38;102088.16;4886970;29;20044;-93
2022/01/14 09:36:17;;;;;;;26.50;13.55;;;;;;;2.19;68.25;102092.16;4895692;29;20099;-93
2022/01/14 09:42:05;;;;;;;26.00;13.52;;;;;;;1.69;68.48;102022.25;4898417;29;20047;-92
2022/01/14 09:47:52;;;;;;;26.73;13.38;;;;;;;2.07;68.18;102064.16;4880102;29;20063;-92
2022/01/14 09:53:40;;;;;;;29.20;14.52;;;;;;;1.86;68.54;102032.72;4881874;29;20513;-93
2022/01/14 09:59:27;;;;;;;28.42;14.82;;;;;;;2.10;68.66;102043.91;4898154;29;20046;-91
2022/01/14 10:05:34;;;;;;;29.63;14.57;;;;;;;2.24;68.15;102031.75;4900580;29;20541;-92
2022/01/14 10:11:21;;;;;;;32.55;15.63;;;;;;;1.96;68.22;101971.16;4900886;29;20104;-91
2022/01/14 10:17:11;;;;;;;31.00;15.55;;;;;;;2.19;68.32;101998.50;4913117;29;20036;-93
2022/01/14 10:22:59;;;;;;;30.50;15.30;;;;;;;2.08;68.70;101957.78;4883113;29;20096;-91
2022/01/14 10:29:03;;;;;;;31.48;16.05;;;;;;;1.07;69.00;101791.69;4881842;29;20087;-92
2022/01/14 10:34:51;;;;;;;32.70;15.60;;;;;;;1.75;69.33;101889.03;4885476;29;20070;-90
2022/01/14 10:40:43;;;;;;;31.33;15.80;;;;;;;1.78;68.88;101876.50;4891206;29;20124;-91
2022/01/14 10:46:31;;;;;;;30.90;15.80;;;;;;;1.58;70.93;101907.81;4908241;29;20096;-92
2022/01/14 10:52:24;;;;;;;31.42;15.57;;;;;;;1.53;70.64;101886.72;4904056;29;20043;-92
2022/01/14 10:58:35;;;;;;;30.88;14.98;;;;;;;1.64;70.06;101846.69;4901689;29;20532;-91
2022/01/14 11:04:28;;;;;;;32.10;16.35;;;;;;;1.21;70.96;101806.97;4897345;29;20085;-91
2022/01/14 11:10:44;;;;;;;31.83;15.65;;;;;;;1.66;70.94;101863.22;4903260;29;20510;-93
2022/01/14 11:16:33;;;;;;;31.88;16.20;;;;;;;1.37;70.63;101798.31;4902626;29;20051;-92
2022/01/14 11:33:42;;;;;;;30.80;15.43;;;;;;;1.47;70.69;101747.06;4908347;29;20047;-91
2022/01/14 11:45:42;;;;;;;32.10;15.82;;;;;;;1.88;70.49;101765.03;5050527;23;20044;-94
2022/01/14 11:52:00;;;;;;;31.50;15.48;;;;;;;1.81;70.54;101735.16;4907254;29;20044;-94
2022/01/14 11:57:51;;;;;;;32.15;16.65;;;;;;;1.86;70.35;101727.91;4894348;29;20039;-91
2022/01/14 12:03:49;;;;;;;33.13;16.10;;;;;;;1.59;70.79;101678.88;4900470;29;20108;-94
2022/01/14 12:10:01;;;;;;;30.50;15.48;;;;;;;1.77;71.32;101718.47;4891434;29;20044;-93
2022/01/14 12:16:02;;;;;;;32.72;15.23;;;;;;;1.79;70.96;101692.91;4898479;29;20095;-95
2022/01/14 12:21:51;;;;;;;35.75;16.70;;;;;;;1.79;71.23;101683.50;4896468;29;20410;-95
2022/01/14 12:27:45;;;;;;;35.65;16.45;;;;;;;1.81;71.43;101675.94;4893436;29;20036;-95
2022/01/14 12:42:06;;;;;;;30.13;15.45;;;;;;;1.72;71.21;101608.06;4902990;29;20048;-96
2022/01/14 12:48:21;;;;;;;34.88;16.55;;;;;;;1.43;71.65;101559.63;4896205;29;20097;-94
2022/01/14 12:54:10;;;;;;;31.10;15.43;;;;;;;0.90;71.23;101446.97;4885592;29;20044;-94
2022/01/14 13:06:08;;;;;;;29.63;15.52;;;;;;;0.98;71.26;101451.25;5108749;23;20057;-95
2022/01/14 13:12:01;;;;;;;32.15;16.13;;;;;;;1.29;71.42;101496.47;4927517;29;20043;-93
2022/01/14 13:18:01;;;;;;;33.28;15.98;;;;;;;1.93;71.12;101593.88;4918757;29;20031;-93
2022/01/14 13:23:48;;;;;;;33.03;16.50;;;;;;;1.84;71.58;101570.66;4922978;29;20521;-94
2022/01/14 13:29:42;;;;;;;32.40;15.98;;;;;;;2.08;70.96;101597.09;4930067;29;20107;-93
2022/01/14 13:35:40;;;;;;;30.85;15.52;;;;;;;1.70;71.66;101542.63;4925216;29;20075;-93
2022/01/14 13:41:28;;;;;;;33.15;16.00;;;;;;;1.97;71.60;101578.00;4925302;29;20042;-92
2022/01/14 13:47:21;;;;;;;32.55;15.90;;;;;;;2.07;71.43;101577.22;4934451;29;20051;-89
2022/01/14 13:53:10;;;;;;;32.97;16.50;;;;;;;1.96;71.60;101569.31;4920072;29;20031;-88
2022/01/14 13:59:00;;;;;;;34.38;17.13;;;;;;;1.88;71.65;101539.31;4919764;29;20035;-86
2022/01/14 14:04:48;;;;;;;32.78;16.20;;;;;;;1.91;71.24;101552.50;4917302;29;20090;-86
2022/01/14 14:11:47;;;;;;;32.92;16.77;;;;;;;1.72;71.40;101502.50;4914839;29;20092;-88
2022/01/14 14:16:43;;;;;;;33.30;16.38;;;;;;;1.81;71.67;101511.13;4921405;29;20042;-89
2022/01/14 14:22:37;;;;;;;31.77;16.15;;;;;;;1.93;71.98;101520.09;4938222;29;20110;-84
2022/01/14 14:28:28;;;;;;;31.25;16.38;;;;;;;2.00;71.68;101540.53;4939591;29;20055;-89
2022/01/14 14:34:16;;;;;;;31.38;16.63;;;;;;;1.86;71.79;101490.97;4936070;29;20064;-90
2022/01/14 14:40:07;;;;;;;33.72;17.15;;;;;;;1.90;71.23;101494.00;4929128;29;20090;-89
2022/01/14 14:45:54;;;;;;;32.35;16.85;;;;;;;2.16;71.61;101531.75;4919640;29;20055;-90
2022/01/14 14:51:41;;;;;;;34.63;16.95;;;;;;;1.93;71.58;101504.63;4920478;29;20622;-92
2022/01/14 14:57:29;;;;;;;34.90;17.65;;;;;;;2.06;72.10;101524.81;4923730;29;20047;-92
2022/01/14 15:03:17;;;;;;;34.88;16.15;;;;;;;1.75;71.67;101448.72;4920931;29;20035;-90
2022/01/14 15:13:46;;;;;;;32.08;16.23;;;;;;;2.18;71.31;101484.81;4918655;29;20039;-90
2022/01/14 15:19:35;;;;;;;30.20;16.23;;;;;;;2.13;72.03;101498.88;4918178;29;20042;-91
2022/01/14 15:25:24;;;;;;;32.78;16.25;;;;;;;1.72;71.78;101412.38;4919114;29;20039;-90
2022/01/14 15:31:11;;;;;;;31.23;16.35;;;;;;;2.19;71.71;101499.50;4925558;29;20046;-91
2022/01/14 15:37:00;;;;;;;33.13;16.42;;;;;;;1.99;72.13;101453.75;4922131;29;20796;-91
2022/01/14 15:42:48;;;;;;;32.95;16.45;;;;;;;2.11;71.70;101464.31;4917641;29;20039;-89
2022/01/14 15:48:35;;;;;;;30.85;16.15;;;;;;;1.84;71.68;101400.69;4929227;29;20142;-89
2022/01/14 15:54:23;;;;;;;32.97;16.42;;;;;;;2.21;72.26;101472.22;4930000;29;20091;-89
2022/01/14 16:00:12;;;;;;;28.98;15.65;;;;;;;2.19;72.15;101458.25;4924565;29;20051;-87
2022/01/14 16:05:59;;;;;;;29.30;15.82;;;;;;;1.92;71.76;101394.63;4922720;29;20111;-87
2022/01/14 16:16:27;;;;;;;30.83;16.25;;;;;;;2.15;71.79;101443.25;4922138;29;20410;-90
2022/01/14 16:22:14;;;;;;;31.42;15.43;;;;;;;2.09;71.86;101406.59;4925657;29;20091;-89
2022/01/14 16:28:01;;;;;;;29.55;15.68;;;;;;;2.26;72.21;101431.44;4923335;29;20043;-92
2022/01/14 16:33:49;;;;;;;29.90;15.73;;;;;;;1.87;72.02;101364.06;4922360;29;20079;-89
2022/01/14 16:39:37;;;;;;;30.42;15.55;;;;;;;2.06;72.27;101407.97;4921546;29;20482;-91
2022/01/14 16:45:25;;;;;;;33.13;16.75;;;;;;;2.14;72.18;101399.31;4933482;29;20097;-92
2022/01/14 16:54:40;;;;;;;30.33;15.00;;;;;;;1.77;72.29;101329.66;4902287;29;20466;-91
2022/01/14 17:00:28;;;;;;;30.30;16.10;;;;;;;2.15;72.18;101370.22;4909317;29;20056;-91
2022/01/14 17:06:16;;;;;;;27.95;15.30;;;;;;;2.28;71.52;101368.06;4887457;29;20311;-92
2022/01/14 17:11:16;;;;;;;31.40;15.77;;;;;;;2.28;72.04;101398.97;5719398;23;20077;-90
2022/01/14 17:17:04;;;;;;;28.73;15.57;;;;;;;2.28;72.29;101382.63;4919679;29;20195;-87
2022/01/14 17:22:53;;;;;;;28.75;14.82;;;;;;;1.95;72.33;101324.50;4909978;29;20131;-91
2022/01/14 17:28:41;;;;;;;26.38;14.40;;;;;;;2.39;72.02;101392.28;4918332;29;20047;-91
2022/01/14 17:34:09;;;;;;;29.25;14.60;;;;;;;2.35;71.75;101367.91;4924840;29;19922;-90
2022/01/14 17:39:57;;;;;;;28.20;14.48;;;;;;;2.15;72.22;101345.34;4919837;29;20279;-93
2022/01/14 17:45:44;;;;;;;28.10;14.93;;;;;;;2.18;71.79;101335.38;4926909;29;20050;-93
2022/01/14 17:51:31;;;;;;;29.20;15.27;;;;;;;2.03;72.14;101297.81;4921085;29;20284;-95
2022/01/14 17:57:19;;;;;;;28.50;15.27;;;;;;;2.55;72.11;101354.34;4921459;29;20344;-92
2022/01/14 18:03:06;;;;;;;29.50;15.25;;;;;;;2.40;71.79;101320.28;4919203;29;20067;-91
2022/01/14 18:14:48;;;;;;;28.23;14.82;;;;;;;2.02;71.83;101241.91;3281090;23;20299;-93
2022/01/14 18:29:58;;;;;;;27.92;14.55;;;;;;;2.27;72.24;101311.25;5162964;23;20072;-90
2022/01/14 18:41:54;;;;;;;28.52;14.55;;;;;;;2.56;71.56;101312.34;4922469;29;20185;-89
2022/01/14 18:47:41;;;;;;;27.05;13.95;;;;;;;2.33;72.12;101305.00;4916031;29;20279;-91
2022/01/14 18:53:29;;;;;;;27.70;13.80;;;;;;;2.55;72.57;101333.72;4899972;29;20047;-85
2022/01/14 18:59:16;;;;;;;27.55;14.68;;;;;;;2.50;72.08;101315.97;4918222;29;20047;-91
2022/01/14 19:05:04;;;;;;;27.95;13.82;;;;;;;2.65;71.71;101315.78;4920533;29;20104;-91
2022/01/14 19:10:51;;;;;;;29.48;14.60;;;;;;;2.59;71.76;101285.94;4910128;29;20051;-92
2022/01/14 19:16:41;;;;;;;28.25;15.20;;;;;;;2.44;72.01;101270.84;4918054;29;20475;-92
2022/01/14 19:22:29;;;;;;;26.90;14.48;;;;;;;2.54;71.85;101251.06;4909589;29;20051;-93
2022/01/14 19:28:17;;;;;;;25.75;13.93;;;;;;;2.87;71.10;101291.09;4901044;29;20073;-91
2022/01/14 19:33:47;;;;;;;27.13;13.77;;;;;;;2.51;71.38;101236.22;4917811;29;19926;-90
2022/01/14 19:39:35;;;;;;;28.95;15.18;;;;;;;2.52;71.62;101261.25;4898102;29;20415;-89
2022/01/14 19:45:22;;;;;;;28.20;14.93;;;;;;;2.70;71.76;101294.66;4899761;29;20043;-89
2022/01/14 19:51:09;;;;;;;28.13;14.95;;;;;;;2.61;71.93;101238.00;4902736;29;20393;-92
2022/01/14 19:56:57;;;;;;;28.67;14.93;;;;;;;2.63;71.25;101239.94;4901745;29;20173;-91
2022/01/14 20:02:45;;;;;;;30.52;15.73;;;;;;;2.54;72.09;101243.31;4902598;29;20075;-92
2022/01/14 20:08:33;;;;;;;31.27;15.38;;;;;;;2.76;71.38;101260.03;4917096;29;20036;-90
2022/01/14 20:14:20;;;;;;;31.27;15.35;;;;;;;2.57;72.06;101247.09;4914591;29;20035;-90
2022/01/14 20:20:08;;;;;;;29.10;14.80;;;;;;;2.92;70.87;101272.69;4912449;29;20505;-92
2022/01/14 20:25:55;;;;;;;28.77;14.43;;;;;;;2.97;71.41;101314.41;4917856;29;20064;-90
2022/01/14 20:31:44;;;;;;;30.30;14.80;;;;;;;3.07;70.62;101319.66;4917404;29;20521;-88
2022/01/14 20:37:32;;;;;;;27.33;13.75;;;;;;;2.71;72.04;101319.69;4909478;29;20098;-91
2022/01/14 20:43:26;;;;;;;28.67;15.23;;;;;;;2.84;71.71;101323.56;4905604;29;20516;-88
2022/01/14 20:49:14;;;;;;;27.50;14.57;;;;;;;2.75;71.71;101291.78;4905961;29;20107;-87
2022/01/14 20:55:01;;;;;;;27.63;14.68;;;;;;;2.96;71.38;101313.47;4897591;29;20542;-86
2022/01/14 21:00:48;;;;;;;27.08;14.68;;;;;;;2.87;71.10;101298.81;4898065;29;20438;-88
2022/01/14 21:06:36;;;;;;;27.90;14.30;;;;;;;2.97;71.58;101322.13;4915338;29;20069;-93
2022/01/14 21:12:25;;;;;;;27.98;15.15;;;;;;;2.71;71.45;101287.09;4905511;29;20467;-88
2022/01/14 21:18:12;;;;;;;25.25;13.73;;;;;;;2.48;72.17;101260.78;4897481;29;20038;-88
2022/01/14 21:24:00;;;;;;;27.80;14.13;;;;;;;2.95;71.34;101303.03;4915468;29;20062;-87
2022/01/14 21:29:48;;;;;;;26.48;14.43;;;;;;;3.00;71.69;101337.88;4919491;29;20557;-92
2022/01/14 21:35:35;;;;;;;25.67;13.70;;;;;;;2.62;72.01;101304.25;4918234;29;20086;-90
2022/01/14 21:45:39;;;;;;;25.45;13.25;;;;;;;2.87;72.50;101343.56;4916322;29;20050;-92
2022/01/14 21:51:26;;;;;;;24.30;13.13;;;;;;;2.72;72.63;101324.09;4913010;29;20075;-91
2022/01/14 21:57:14;;;;;;;23.60;12.93;;;;;;;2.76;71.96;101309.03;4916294;29;20047;-93
2022/01/14 22:03:02;;;;;;;24.38;12.40;;;;;;;2.79;71.94;101290.34;4918229;29;20043;-87
2022/01/14 22:08:53;;;;;;;21.02;11.65;;;;;;;2.94;71.71;101317.59;4918438;29;20091;-92
2022/01/14 22:14:52;;;;;;;21.33;10.98;;;;;;;3.03;72.16;101307.22;4917441;29;20051;-93
2022/01/14 22:20:42;;;;;;;19.92;11.35;;;;;;;3.14;71.70;101315.97;4917625;29;20072;-93
2022/01/14 22:26:29;;;;;;;24.35;12.38;;;;;;;2.82;72.10;101285.50;4919725;29;20127;-94
2022/01/14 22:32:17;;;;;;;20.48;11.05;;;;;;;3.03;72.13;101278.84;4932982;29;20307;-96
2022/01/14 22:38:05;;;;;;;20.20;11.10;;;;;;;3.09;72.29;101305.22;4914426;29;20056;-93
2022/01/14 22:48:33;;;;;;;19.27;10.60;;;;;;;3.05;72.50;101314.34;4901881;29;20082;-91
2022/01/14 22:54:21;;;;;;;21.23;11.25;;;;;;;3.09;71.93;101296.53;4901618;29;20112;-91
2022/01/14 23:00:14;;;;;;;20.30;10.70;;;;;;;3.24;72.50;101336.69;4919160;29;20124;-91
2022/01/14 23:06:01;;;;;;;17.65;9.73;;;;;;;3.25;72.69;101334.22;4919256;29;20036;-91
2022/01/14 23:11:49;;;;;;;17.85;9.98;;;;;;;3.14;72.85;101303.94;4900067;29;20051;-91
2022/01/14 23:17:36;;;;;;;17.65;9.73;;;;;;;3.18;72.68;101325.78;4916930;29;20046;-91
2022/01/14 23:23:23;;;;;;;18.35;9.23;;;;;;;3.20;72.59;101340.66;4918242;29;20102;-91
2022/01/14 23:29:11;;;;;;;18.88;9.77;;;;;;;3.30;72.58;101357.88;4918684;29;20506;-92
2022/01/14 23:34:58;;;;;;;14.98;8.82;;;;;;;2.97;72.84;101345.34;4908040;29;20050;-89
2022/01/14 23:40:45;;;;;;;16.38;8.93;;;;;;;3.47;72.71;101414.56;4903730;29;20303;-92
2022/01/14 23:51:15;;;;;;;16.30;8.95;;;;;;;3.19;72.86;101384.38;4899503;29;20509;-93
2022/01/14 23:57:02;;;;;;;16.00;8.52;;;;;;;3.39;73.00;101443.94;4915985;29;20054;-93
